Time;durP1;ratioP1;P1;durP2;ratioP2;P2;SDS_P1;SDS_P2;PMS_P1;PMS_P2;Temp;Humidity;BMP_temperature;BMP_pressure;BME280_temperature;BME280_humidity;BME280_pressure;Samples;Min_cycle;Max_cycle;Signal;HPM_P1;HPM_P2
2024/04/24 00:00:44;;;;;;;11.90;5.07;;;;;;;5.85;100.00;95765.28;5396276;26;20286;-71
2024/04/24 00:03:12;;;;;;;8.87;4.90;;;;;;;5.89;100.00;95760.56;5394999;26;20641;-71
2024/04/24 00:05:40;;;;;;;7.53;4.23;;;;;;;5.65;100.00;95763.91;5394793;26;20952;-71
2024/04/24 00:08:08;;;;;;;11.13;5.30;;;;;;;5.47;100.00;95764.97;5394016;26;20223;-71
2024/04/24 00:10:39;;;;;;;13.43;5.37;;;;;;;5.70;100.00;95768.63;5393521;26;20935;-71
2024/04/24 00:13:07;;;;;;;10.17;5.33;;;;;;;5.61;100.00;95756.53;5393950;26;21202;-71
2024/04/24 00:15:35;;;;;;;14.40;5.73;;;;;;;5.68;100.00;95760.16;5395702;26;20290;-71
2024/04/24 00:18:03;;;;;;;8.83;5.00;;;;;;;5.56;100.00;95750.94;5394966;26;20227;-71
2024/04/24 00:20:32;;;;;;;12.50;5.50;;;;;;;5.48;100.00;95750.94;5395486;26;20230;-71
2024/04/24 00:23:00;;;;;;;12.47;5.73;;;;;;;5.57;100.00;95747.38;5394042;26;20326;-71
2024/04/24 00:25:28;;;;;;;10.77;5.03;;;;;;;5.70;100.00;95742.50;5395325;26;20273;-71
2024/04/24 00:27:59;;;;;;;10.17;5.00;;;;;;;5.78;100.00;95739.94;5395255;26;20397;-71
2024/04/24 00:30:27;;;;;;;10.20;5.10;;;;;;;5.77;100.00;95740.94;5394588;26;20234;-71
2024/04/24 00:32:53;;;;;;;10.17;4.90;;;;;;;5.54;100.00;95737.25;5393809;26;20388;-71
2024/04/24 00:35:21;;;;;;;14.83;5.73;;;;;;;5.66;100.00;95738.56;5394878;26;20235;-71
2024/04/24 00:37:49;;;;;;;10.43;5.33;;;;;;;5.72;100.00;95725.69;5394942;26;20331;-71
2024/04/24 00:40:17;;;;;;;10.17;5.00;;;;;;;5.54;100.00;95734.63;5394840;26;20368;-71
2024/04/24 00:42:45;;;;;;;9.30;4.57;;;;;;;5.51;100.00;95738.38;5394332;26;20331;-71
2024/04/24 00:45:16;;;;;;;10.93;5.57;;;;;;;5.62;100.00;95724.19;5394316;26;20227;-71
2024/04/24 00:47:45;;;;;;;10.83;5.03;;;;;;;5.37;100.00;95732.91;5395172;26;20235;-71
2024/04/24 00:50:15;;;;;;;10.47;4.73;;;;;;;5.45;100.00;95720.72;5394138;26;20392;-71
2024/04/24 00:52:45;;;;;;;12.83;6.13;;;;;;;5.52;100.00;95723.50;5393372;26;20265;-71
2024/04/24 00:55:13;;;;;;;11.27;5.80;;;;;;;5.57;100.00;95716.00;5394555;26;20246;-71
2024/04/24 00:57:43;;;;;;;11.10;5.43;;;;;;;5.60;100.00;95713.06;5393984;26;20230;-71
2024/04/24 01:00:12;;;;;;;11.07;5.23;;;;;;;5.58;100.00;95713.22;5394497;26;20231;-71
2024/04/24 01:02:43;;;;;;;9.90;4.07;;;;;;;5.49;100.00;95708.16;5392706;26;20323;-71
2024/04/24 01:05:11;;;;;;;10.67;5.10;;;;;;;5.34;100.00;95709.72;5394945;26;20230;-71
2024/04/24 01:07:39;;;;;;;11.47;5.13;;;;;;;5.38;100.00;95703.22;5393107;26;20227;-71
2024/04/24 01:10:18;;;;;;;12.77;5.90;;;;;;;5.68;100.00;95708.69;5394086;26;20315;-71
2024/04/24 01:12:48;;;;;;;14.33;5.90;;;;;;;5.42;100.00;95709.75;5392952;26;20234;-71
2024/04/24 01:15:14;;;;;;;11.67;5.70;;;;;;;5.55;100.00;95697.06;5394796;26;20675;-71
2024/04/24 01:17:48;;;;;;;9.87;5.03;;;;;;;5.56;100.00;95704.75;5393759;26;20329;-71
2024/04/24 01:20:21;;;;;;;10.47;5.83;;;;;;;5.64;100.00;95703.97;5394415;26;20327;-71
2024/04/24 01:23:02;;;;;;;8.00;4.23;;;;;;;5.65;100.00;95700.34;5396956;26;20231;-71
2024/04/24 01:25:36;;;;;;;12.43;4.90;;;;;;;5.72;100.00;95699.53;5397427;26;20227;-71
2024/04/24 01:28:08;;;;;;;12.10;5.93;;;;;;;5.75;100.00;95698.41;5397603;26;20225;-71
2024/04/24 01:30:36;;;;;;;11.10;5.67;;;;;;;5.53;100.00;95701.63;5396653;26;20649;-71
2024/04/24 01:33:04;;;;;;;11.67;5.60;;;;;;;5.44;100.00;95697.34;5396610;26;20296;-71
2024/04/24 01:35:32;;;;;;;10.33;4.53;;;;;;;5.30;100.00;95697.97;5397234;26;20227;-71
2024/04/24 01:38:00;;;;;;;10.57;5.17;;;;;;;5.45;100.00;95696.38;5397392;26;20293;-71
2024/04/24 01:40:28;;;;;;;11.23;5.03;;;;;;;5.48;100.00;95693.44;5396960;26;20279;-71
2024/04/24 01:42:56;;;;;;;8.83;4.50;;;;;;;5.42;100.00;95696.69;5395909;26;20335;-71
2024/04/24 01:45:27;;;;;;;11.43;5.13;;;;;;;5.58;100.00;95694.94;5397143;26;20388;-71
2024/04/24 01:47:55;;;;;;;11.87;5.27;;;;;;;5.28;100.00;95697.28;5397050;26;20234;-71
2024/04/24 01:50:23;;;;;;;9.53;5.20;;;;;;;5.26;100.00;95693.22;5397059;26;20331;-71
2024/04/24 01:52:51;;;;;;;11.40;5.30;;;;;;;5.44;100.00;95690.31;5395966;26;20244;-71
2024/04/24 01:55:20;;;;;;;10.97;5.77;;;;;;;5.51;100.00;95685.28;5398312;26;20828;-71
2024/04/24 01:57:48;;;;;;;12.27;5.93;;;;;;;5.46;100.00;95687.59;5396339;26;20227;-71
2024/04/24 02:00:16;;;;;;;11.27;5.30;;;;;;;5.42;100.00;95688.84;5398127;26;20227;-71
2024/04/24 02:02:47;;;;;;;10.10;5.17;;;;;;;5.45;100.00;95683.31;5396320;26;20242;-71
2024/04/24 02:05:15;;;;;;;10.53;4.80;;;;;;;5.51;100.00;95693.13;5397339;26;20334;-71
2024/04/24 02:07:43;;;;;;;9.80;5.40;;;;;;;5.26;100.00;95690.63;5397521;26;20920;-71
2024/04/24 02:10:11;;;;;;;12.37;5.37;;;;;;;5.36;100.00;95692.13;5397001;26;20291;-71
2024/04/24 02:12:39;;;;;;;12.77;5.50;;;;;;;5.46;100.00;95687.59;5396185;26;20343;-71
2024/04/24 02:15:08;;;;;;;8.63;4.73;;;;;;;5.60;100.00;95686.94;5397373;26;20446;-71
2024/04/24 02:17:36;;;;;;;13.03;5.53;;;;;;;5.60;100.00;95692.16;5398194;26;20825;-71
2024/04/24 02:20:08;;;;;;;9.60;5.43;;;;;;;5.66;100.00;95692.34;5397076;26;20290;-71
2024/04/24 02:22:37;;;;;;;9.90;4.77;;;;;;;5.49;100.00;95692.47;5396635;26;20249;-71
2024/04/24 02:27:49;;;;;;;10.33;5.33;;;;;;;5.42;100.00;95678.41;5398848;26;20276;-71
2024/04/24 02:30:17;;;;;;;10.27;5.17;;;;;;;5.49;100.00;95682.84;5393945;26;20925;-71
2024/04/24 02:32:46;;;;;;;12.70;6.17;;;;;;;5.41;100.00;95679.41;5396339;26;20231;-71
2024/04/24 02:35:14;;;;;;;10.47;5.07;;;;;;;5.44;100.00;95679.88;5395643;26;20223;-71
2024/04/24 02:37:42;;;;;;;10.60;5.20;;;;;;;5.30;100.00;95684.91;5397208;26;20441;-71
2024/04/24 02:40:11;;;;;;;10.00;5.17;;;;;;;5.31;100.00;95683.09;5397692;26;20331;-71
2024/04/24 02:42:39;;;;;;;11.53;5.50;;;;;;;5.20;100.00;95681.59;5395740;26;20234;-71
2024/04/24 02:45:08;;;;;;;11.53;5.00;;;;;;;5.24;100.00;95676.88;5396817;26;20348;-71
2024/04/24 02:47:36;;;;;;;14.50;5.70;;;;;;;5.19;100.00;95677.34;5396664;26;20335;-71
2024/04/24 02:50:05;;;;;;;10.23;5.03;;;;;;;5.15;100.00;95670.81;5396595;26;20246;-71
2024/04/24 02:52:35;;;;;;;10.17;5.37;;;;;;;5.31;100.00;95665.66;5395997;26;20660;-71
2024/04/24 02:55:04;;;;;;;12.73;6.10;;;;;;;5.15;100.00;95667.38;5397526;26;20227;-71
2024/04/24 02:57:34;;;;;;;13.53;5.80;;;;;;;5.15;100.00;95668.19;5396420;26;20231;-71
2024/04/24 03:00:02;;;;;;;10.50;5.00;;;;;;;5.12;100.00;95671.13;5396760;26;20258;-71
2024/04/24 03:02:30;;;;;;;11.67;5.33;;;;;;;5.02;100.00;95665.22;5394971;26;20341;-71
2024/04/24 03:04:59;;;;;;;11.10;5.27;;;;;;;5.02;100.00;95670.44;5395778;26;20359;-71
2024/04/24 03:07:27;;;;;;;10.50;5.37;;;;;;;4.95;100.00;95666.81;5396833;26;20332;-71
2024/04/24 03:09:57;;;;;;;12.50;5.83;;;;;;;5.11;100.00;95656.44;5396392;26;20876;-71
2024/04/24 03:12:25;;;;;;;11.70;5.57;;;;;;;4.92;100.00;95661.09;5396033;26;20234;-71
2024/04/24 03:14:54;;;;;;;11.70;5.87;;;;;;;4.73;100.00;95665.75;5395708;26;20624;-71
2024/04/24 03:17:22;;;;;;;11.67;5.23;;;;;;;4.75;100.00;95663.78;5397502;26;20235;-71
2024/04/24 03:19:50;;;;;;;13.63;5.77;;;;;;;4.82;100.00;95665.63;5396524;26;20218;-71
2024/04/24 03:22:18;;;;;;;12.07;5.20;;;;;;;4.83;100.00;95659.41;5396597;26;20283;-71
2024/04/24 03:24:46;;;;;;;14.73;5.93;;;;;;;4.83;100.00;95644.56;5394844;26;20230;-71
2024/04/24 03:27:17;;;;;;;10.53;5.67;;;;;;;4.99;100.00;95652.47;5396860;26;21735;-71
2024/04/24 03:29:45;;;;;;;12.80;6.47;;;;;;;4.85;100.00;95647.06;5396113;26;20327;-71
2024/04/24 03:32:13;;;;;;;56.37;23.23;;;;;;;4.79;100.00;95650.28;5396182;26;21067;-71
2024/04/24 03:34:41;;;;;;;49.90;18.07;;;;;;;4.81;100.00;95655.34;5395771;26;20231;-71
2024/04/24 03:37:09;;;;;;;43.17;18.07;;;;;;;4.74;100.00;95651.72;5396133;26;20223;-71
2024/04/24 03:39:39;;;;;;;44.03;18.87;;;;;;;4.82;100.00;95642.13;5395998;26;20801;-71
2024/04/24 03:42:07;;;;;;;36.27;17.03;;;;;;;4.67;100.00;95645.47;5394954;26;20355;-71
2024/04/24 03:44:39;;;;;;;20.87;10.43;;;;;;;4.80;100.00;95646.69;5395071;26;20239;-71
2024/04/24 03:47:08;;;;;;;29.53;10.73;;;;;;;4.64;100.00;95645.78;5395132;26;20230;-71
2024/04/24 03:49:36;;;;;;;16.97;9.03;;;;;;;4.53;100.00;95640.84;5395841;26;20230;-71
2024/04/24 03:52:04;;;;;;;16.33;7.83;;;;;;;4.54;100.00;95639.88;5395397;26;20230;-71
2024/04/24 03:54:32;;;;;;;14.03;7.30;;;;;;;4.62;100.00;95638.13;5396063;26;20226;-71
2024/04/24 03:57:00;;;;;;;13.47;6.50;;;;;;;4.59;100.00;95637.63;5395516;26;21721;-71
2024/04/24 03:59:28;;;;;;;16.07;7.93;;;;;;;4.45;100.00;95640.78;5396549;26;20741;-71
2024/04/24 04:01:59;;;;;;;16.83;8.27;;;;;;;4.64;100.00;95635.38;5395147;26;20231;-71
2024/04/24 04:04:27;;;;;;;23.50;8.17;;;;;;;4.47;100.00;95633.66;5395437;26;20312;-71
2024/04/24 04:06:55;;;;;;;25.70;10.57;;;;;;;4.46;100.00;95634.63;5395931;26;20297;-71
2024/04/24 04:09:23;;;;;;;26.27;11.07;;;;;;;4.39;100.00;95633.59;5396163;26;20227;-71
2024/04/24 04:11:51;;;;;;;17.27;8.07;;;;;;;4.35;100.00;95635.69;5393802;26;20343;-71
2024/04/24 04:14:19;;;;;;;20.03;8.57;;;;;;;4.45;100.00;95633.78;5394359;26;20415;-71
2024/04/24 04:16:47;;;;;;;29.20;9.80;;;;;;;4.40;100.00;95632.63;5395867;26;20263;-71
2024/04/24 04:19:18;;;;;;;28.17;10.97;;;;;;;4.60;100.00;95634.03;5395028;26;20318;-71
2024/04/24 04:21:46;;;;;;;25.47;11.57;;;;;;;4.45;100.00;95632.97;5396219;26;20327;-71
2024/04/24 04:24:14;;;;;;;24.07;9.80;;;;;;;4.51;100.00;95634.97;5394314;26;20234;-71
2024/04/24 04:26:42;;;;;;;23.93;8.10;;;;;;;4.49;100.00;95632.53;5395572;26;20237;-71
2024/04/24 04:29:11;;;;;;;23.67;7.37;;;;;;;4.56;100.00;95633.53;5394679;26;20230;-71
2024/04/24 04:31:39;;;;;;;36.57;13.53;;;;;;;4.51;100.00;95629.75;5395410;26;20820;-71
2024/04/24 04:34:07;;;;;;;26.33;10.17;;;;;;;4.53;100.00;95627.78;5394319;26;20819;-71
2024/04/24 04:36:38;;;;;;;18.20;8.00;;;;;;;4.65;100.00;95627.38;5396008;26;20665;-71
2024/04/24 04:39:06;;;;;;;14.93;6.43;;;;;;;4.50;100.00;95628.91;5396785;26;20342;-71
2024/04/24 04:41:34;;;;;;;17.90;6.60;;;;;;;4.60;100.00;95628.81;5395257;26;20328;-71
2024/04/24 04:44:02;;;;;;;22.83;9.87;;;;;;;4.61;100.00;95625.22;5394790;26;20238;-71
2024/04/24 04:46:30;;;;;;;18.83;7.47;;;;;;;4.58;100.00;95628.16;5395412;26;20231;-71
2024/04/24 04:48:58;;;;;;;37.17;10.20;;;;;;;4.22;100.00;95619.63;5395117;26;20334;-71
2024/04/24 04:51:27;;;;;;;24.67;8.93;;;;;;;4.40;100.00;95617.81;5394288;26;20330;-71
2024/04/24 04:53:57;;;;;;;21.33;10.87;;;;;;;4.52;100.00;95623.53;5394508;26;20233;-71
2024/04/24 04:56:26;;;;;;;19.07;8.87;;;;;;;4.59;100.00;95627.19;5398259;26;20739;-71
2024/04/24 04:58:54;;;;;;;24.27;9.67;;;;;;;4.58;100.00;95622.94;5398832;26;20269;-71
2024/04/24 05:01:22;;;;;;;21.10;10.03;;;;;;;4.65;100.00;95616.94;5399558;26;21154;-71
2024/04/24 05:03:50;;;;;;;16.33;7.13;;;;;;;4.57;100.00;95610.84;5397410;26;20230;-71
2024/04/24 05:06:18;;;;;;;15.57;6.77;;;;;;;4.41;100.00;95610.78;5398790;26;20225;-71
2024/04/24 05:08:46;;;;;;;17.43;7.37;;;;;;;4.48;100.00;95620.44;5398019;26;20230;-71
2024/04/24 05:11:17;;;;;;;17.10;7.13;;;;;;;4.85;100.00;95620.94;5398046;26;20296;-71
2024/04/24 05:13:46;;;;;;;19.90;8.20;;;;;;;4.76;100.00;95613.22;5396972;26;21630;-71
2024/04/24 05:16:14;;;;;;;14.77;6.43;;;;;;;4.73;100.00;95619.56;5398564;26;20223;-71
2024/04/24 05:18:42;;;;;;;14.47;7.13;;;;;;;4.77;100.00;95620.09;5398821;26;20340;-71
2024/04/24 05:21:11;;;;;;;13.47;7.03;;;;;;;4.98;100.00;95610.88;5397995;26;20229;-71
2024/04/24 05:23:39;;;;;;;13.60;6.67;;;;;;;5.10;100.00;95613.00;5397078;26;20566;-71
2024/04/24 05:29:11;;;;;;;13.80;5.87;;;;;;;5.12;100.00;95605.84;5398441;26;20243;-71
2024/04/24 05:31:40;;;;;;;15.37;6.90;;;;;;;5.05;100.00;95599.66;5397682;26;20339;-71
2024/04/24 05:34:08;;;;;;;19.27;7.50;;;;;;;5.11;100.00;95600.78;5396354;26;21109;-71
2024/04/24 05:36:37;;;;;;;15.33;7.00;;;;;;;4.77;100.00;95599.22;5398198;26;20269;-71
2024/04/24 05:39:05;;;;;;;11.77;6.33;;;;;;;5.06;100.00;95606.47;5398527;26;21157;-71
2024/04/24 05:41:33;;;;;;;11.07;5.30;;;;;;;5.23;100.00;95608.19;5398349;26;20226;-71
2024/04/24 05:44:04;;;;;;;11.23;5.83;;;;;;;5.63;100.00;95601.19;5397182;26;20324;-71
2024/04/24 05:46:32;;;;;;;11.07;5.87;;;;;;;5.52;100.00;95604.16;5397998;26;20234;-71
2024/04/24 05:49:00;;;;;;;13.23;5.83;;;;;;;5.31;100.00;95602.13;5397939;26;20320;-71
2024/04/24 05:51:28;;;;;;;10.57;4.93;;;;;;;5.44;100.00;95611.94;5397466;26;20230;-71
2024/04/24 05:53:56;;;;;;;10.27;4.97;;;;;;;5.42;100.00;95605.25;5396745;26;20678;-71
2024/04/24 05:56:24;;;;;;;11.83;6.00;;;;;;;5.45;100.00;95608.38;5397285;26;20231;-71
2024/04/24 05:58:53;;;;;;;9.70;4.73;;;;;;;5.44;100.00;95598.88;5397823;26;20239;-71
2024/04/24 06:01:23;;;;;;;12.33;5.73;;;;;;;5.64;100.00;95602.03;5398346;26;20227;-71
2024/04/24 06:03:51;;;;;;;12.13;5.93;;;;;;;5.49;100.00;95603.63;5396498;26;20237;-71
2024/04/24 06:06:20;;;;;;;11.07;5.60;;;;;;;5.87;100.00;95589.94;5397035;26;20231;-71
2024/04/24 06:08:48;;;;;;;8.57;4.73;;;;;;;5.97;100.00;95598.44;5397044;26;20233;-71
2024/04/24 06:11:16;;;;;;;12.87;5.73;;;;;;;6.00;100.00;95598.94;5397249;26;20295;-71
2024/04/24 06:13:44;;;;;;;13.97;5.50;;;;;;;6.31;100.00;95586.78;5396512;26;20339;-71
2024/04/24 06:16:13;;;;;;;8.43;4.90;;;;;;;6.26;100.00;95589.09;5397167;26;21102;-71
2024/04/24 06:18:44;;;;;;;10.17;4.90;;;;;;;6.56;100.00;95586.56;5397811;26;20231;-71
2024/04/24 06:21:12;;;;;;;7.93;4.30;;;;;;;6.51;100.00;95586.25;5398065;26;20349;-71
2024/04/24 06:23:40;;;;;;;9.17;4.57;;;;;;;6.41;100.00;95587.44;5396673;26;20227;-71
2024/04/24 06:26:05;;;;;;;8.53;4.30;;;;;;;6.64;100.00;95586.53;5396873;26;20231;-71
2024/04/24 06:28:33;;;;;;;7.70;4.57;;;;;;;6.55;100.00;95579.69;5398428;26;20320;-71
2024/04/24 06:31:02;;;;;;;7.63;3.93;;;;;;;6.52;100.00;95581.81;5396959;26;20226;-71
2024/04/24 06:33:30;;;;;;;8.03;4.00;;;;;;;6.88;100.00;95576.78;5395836;26;20239;-71
2024/04/24 06:36:05;;;;;;;11.40;4.63;;;;;;;7.09;100.00;95574.41;5396608;26;20319;-72
2024/04/24 06:38:33;;;;;;;8.97;4.33;;;;;;;6.93;100.00;95573.66;5397244;26;20222;-71
2024/04/24 06:41:01;;;;;;;8.73;4.30;;;;;;;6.78;100.00;95573.56;5396739;26;20230;-72
2024/04/24 06:43:29;;;;;;;7.23;3.73;;;;;;;6.95;100.00;95577.75;5396111;26;20644;-71
2024/04/24 06:45:57;;;;;;;11.13;4.47;;;;;;;6.59;100.00;95575.75;5397675;26;20670;-72
2024/04/24 06:48:25;;;;;;;7.43;4.00;;;;;;;6.88;100.00;95565.50;5396476;26;20231;-71
2024/04/24 06:50:54;;;;;;;8.83;4.27;;;;;;;7.21;100.00;95567.78;5397334;26;20338;-72
2024/04/24 06:53:24;;;;;;;6.13;3.50;;;;;;;7.43;100.00;95570.44;5395994;26;20231;-72
2024/04/24 06:55:52;;;;;;;6.57;3.57;;;;;;;7.45;100.00;95568.44;5397647;26;20219;-71
2024/04/24 06:58:20;;;;;;;9.80;4.27;;;;;;;7.45;100.00;95560.56;5396554;26;20331;-71
2024/04/24 07:00:49;;;;;;;6.50;3.53;;;;;;;7.27;100.00;95567.09;5395902;26;21014;-71
2024/04/24 07:03:17;;;;;;;7.00;3.87;;;;;;;7.55;100.00;95561.16;5395266;26;20655;-71
2024/04/24 07:05:45;;;;;;;8.13;3.87;;;;;;;7.56;100.00;95554.94;5395785;26;20700;-72
2024/04/24 07:08:13;;;;;;;9.03;4.87;;;;;;;7.60;98.78;95553.59;5397224;26;20348;-71
2024/04/24 07:10:44;;;;;;;5.37;3.20;;;;;;;7.81;96.29;95556.38;5395830;26;20231;-72
2024/04/24 07:13:12;;;;;;;7.37;3.50;;;;;;;7.44;98.63;95555.50;5395444;26;20235;-71
2024/04/24 07:15:40;;;;;;;5.83;3.13;;;;;;;7.57;93.30;95553.13;5396200;26;20227;-71
2024/04/24 07:18:09;;;;;;;5.53;3.30;;;;;;;7.49;91.10;95550.56;5395909;26;20226;-71
2024/04/24 07:20:37;;;;;;;7.20;3.37;;;;;;;7.46;93.65;95545.69;5394987;26;20497;-71
2024/04/24 07:23:05;;;;;;;7.10;3.53;;;;;;;7.71;94.28;95544.50;5395798;26;20323;-71
2024/04/24 07:25:34;;;;;;;6.43;3.20;;;;;;;7.59;92.12;95535.41;5396005;26;20231;-71
2024/04/24 07:28:05;;;;;;;7.63;3.57;;;;;;;7.95;92.13;95532.78;5396291;26;20274;-72
2024/04/24 07:30:33;;;;;;;6.50;3.37;;;;;;;7.91;90.10;95541.19;5396350;26;21652;-71
2024/04/24 07:33:01;;;;;;;5.00;3.63;;;;;;;7.70;92.68;95541.06;5395051;26;20960;-71
2024/04/24 07:35:29;;;;;;;6.10;3.57;;;;;;;7.69;92.80;95533.34;5396365;26;20675;-72
2024/04/24 07:37:57;;;;;;;4.77;3.00;;;;;;;7.90;88.98;95527.28;5395855;26;20227;-71
2024/04/24 07:40:25;;;;;;;6.37;3.77;;;;;;;7.91;89.78;95522.84;5396306;26;20368;-71
2024/04/24 07:42:54;;;;;;;7.10;3.60;;;;;;;8.07;90.22;95522.66;5394456;26;20991;-71
2024/04/24 07:45:25;;;;;;;5.97;3.40;;;;;;;8.18;91.63;95524.91;5396097;26;20274;-72
2024/04/24 07:47:53;;;;;;;6.60;3.43;;;;;;;7.98;89.73;95510.63;5396480;26;20561;-71
2024/04/24 07:50:21;;;;;;;4.63;2.80;;;;;;;8.10;90.49;95514.47;5396472;26;20328;-71
2024/04/24 07:52:49;;;;;;;4.60;3.07;;;;;;;8.22;84.76;95510.44;5394628;26;20343;-72
2024/04/24 07:55:17;;;;;;;7.40;2.87;;;;;;;8.19;79.62;95516.03;5396263;26;20336;-72
2024/04/24 07:57:45;;;;;;;6.10;3.07;;;;;;;8.35;83.03;95508.81;5394991;26;20501;-71
2024/04/24 08:00:15;;;;;;;5.47;3.00;;;;;;;8.48;83.26;95515.03;5395823;26;20227;-72
2024/04/24 08:02:45;;;;;;;5.83;3.47;;;;;;;8.61;79.41;95506.53;5396357;26;20248;-72
2024/04/24 08:05:14;;;;;;;4.83;2.53;;;;;;;8.45;74.89;95508.53;5395098;26;20332;-72
2024/04/24 08:07:42;;;;;;;5.17;3.17;;;;;;;8.31;82.47;95511.97;5396146;26;20219;-72
2024/04/24 08:10:10;;;;;;;5.63;3.10;;;;;;;8.32;81.01;95508.34;5395156;26;20319;-72
2024/04/24 08:12:38;;;;;;;6.07;3.07;;;;;;;8.47;79.73;95506.56;5395690;26;20277;-71
2024/04/24 08:15:08;;;;;;;4.53;2.93;;;;;;;8.54;74.46;95509.06;5394380;26;20246;-72
2024/04/24 08:17:36;;;;;;;5.97;2.90;;;;;;;8.77;76.45;95504.53;5395275;26;20275;-72
2024/04/24 08:20:08;;;;;;;4.20;2.70;;;;;;;8.87;72.92;95499.81;5394466;26;20227;-72
2024/04/24 08:22:37;;;;;;;4.47;2.73;;;;;;;8.91;70.13;95495.81;5388516;26;20721;-71
2024/04/24 08:25:05;;;;;;;4.63;2.37;;;;;;;9.22;68.65;95494.53;5394528;26;20591;-72
2024/04/24 08:27:34;;;;;;;4.13;2.80;;;;;;;9.40;65.55;95488.84;5393334;26;21870;-72
2024/04/24 08:30:02;;;;;;;4.87;2.83;;;;;;;9.36;62.82;95487.59;5394058;26;20226;-72
2024/04/24 08:32:30;;;;;;;5.27;2.10;;;;;;;9.38;63.67;95482.94;5394565;26;20357;-72
2024/04/24 08:34:58;;;;;;;5.43;2.70;;;;;;;9.70;62.78;95493.78;5396188;26;20230;-72
2024/04/24 08:37:29;;;;;;;2.17;1.63;;;;;;;9.68;65.19;95487.09;5394200;26;20227;-72
2024/04/24 08:39:57;;;;;;;5.77;2.80;;;;;;;9.56;61.73;95483.31;5395140;26;20337;-72
2024/04/24 08:42:26;;;;;;;4.73;2.07;;;;;;;9.20;57.22;95482.56;5393375;26;20339;-71
2024/04/24 08:44:57;;;;;;;4.47;2.47;;;;;;;9.28;57.11;95487.72;5392838;26;20271;-72
2024/04/24 08:47:27;;;;;;;4.33;2.30;;;;;;;9.40;57.20;95486.22;5394266;26;20238;-71
2024/04/24 08:49:56;;;;;;;5.00;2.60;;;;;;;9.59;59.16;95480.34;5394693;26;20351;-71
2024/04/24 08:52:24;;;;;;;3.93;2.40;;;;;;;10.06;58.05;95479.53;5392761;26;20230;-71
2024/04/24 08:54:59;;;;;;;3.27;2.07;;;;;;;10.11;57.18;95471.84;5393685;26;20219;-71
2024/04/24 08:57:29;;;;;;;5.90;3.30;;;;;;;9.56;62.13;95472.78;5394587;26;20226;-71
2024/04/24 09:00:01;;;;;;;5.97;3.23;;;;;;;9.16;62.27;95468.16;5393370;26;21346;-71
2024/04/24 09:02:34;;;;;;;4.67;3.20;;;;;;;8.97;63.21;95479.28;5395250;26;20578;-71
2024/04/24 09:05:05;;;;;;;5.33;3.10;;;;;;;8.71;60.70;95473.72;5395019;26;20323;-71
2024/04/24 09:07:35;;;;;;;6.43;2.13;;;;;;;8.75;62.37;95484.69;5394535;26;20729;-72
2024/04/24 09:10:07;;;;;;;4.10;2.83;;;;;;;8.74;59.12;95486.50;5389859;26;20227;-71
2024/04/24 09:12:37;;;;;;;16.87;3.17;;;;;;;8.61;57.76;95478.44;5393218;26;20285;-71
2024/04/24 09:15:05;;;;;;;3.13;2.37;;;;;;;8.53;56.89;95490.88;5393007;26;20227;-71
2024/04/24 09:17:35;;;;;;;7.00;3.30;;;;;;;8.78;57.89;95479.91;5393247;26;20231;-71
2024/04/24 09:20:03;;;;;;;6.47;3.47;;;;;;;8.82;57.69;95469.81;5390943;26;20239;-71
2024/04/24 09:22:31;;;;;;;3.17;2.13;;;;;;;8.74;57.25;95483.06;5392769;26;21018;-72
2024/04/24 09:24:59;;;;;;;5.73;2.90;;;;;;;8.45;57.46;95480.47;5392673;26;20242;-71
2024/04/24 09:27:32;;;;;;;5.83;3.30;;;;;;;8.96;56.46;95469.78;5391868;26;20323;-71
2024/04/24 09:30:00;;;;;;;4.87;3.07;;;;;;;9.01;57.43;95463.97;5392961;26;20269;-72
2024/04/24 09:32:28;;;;;;;4.37;2.83;;;;;;;9.22;57.35;95467.44;5390812;26;20365;-71
2024/04/24 09:34:56;;;;;;;6.67;3.30;;;;;;;9.39;57.18;95463.53;5389785;26;20440;-71
2024/04/24 09:37:25;;;;;;;4.00;2.13;;;;;;;9.54;56.70;95461.66;5392139;26;20586;-71
2024/04/24 09:39:54;;;;;;;5.13;3.13;;;;;;;9.61;58.12;95449.38;5392494;26;20680;-71
2024/04/24 09:42:22;;;;;;;3.77;2.70;;;;;;;9.49;56.76;95453.53;5395399;26;20336;-71
2024/04/24 09:44:54;;;;;;;4.03;2.80;;;;;;;9.66;56.29;95449.63;5395351;26;20349;-71
2024/04/24 09:47:23;;;;;;;6.13;3.00;;;;;;;9.24;58.45;95461.00;5396017;26;20265;-71
2024/04/24 09:49:56;;;;;;;4.80;3.03;;;;;;;9.57;58.94;95450.75;5396080;26;20262;-71
2024/04/24 09:52:25;;;;;;;6.27;2.70;;;;;;;9.20;56.73;95448.41;5396493;26;20334;-71
2024/04/24 09:54:54;;;;;;;4.13;2.43;;;;;;;9.18;56.83;95453.84;5395412;26;20235;-71
2024/04/24 09:57:28;;;;;;;6.23;3.30;;;;;;;9.18;57.86;95445.16;5396909;26;20227;-71
2024/04/24 10:00:03;;;;;;;7.00;3.97;;;;;;;9.23;59.42;95448.03;5395259;26;20223;-71
2024/04/24 10:02:34;;;;;;;5.07;3.20;;;;;;;9.27;59.52;95444.84;5396025;26;20297;-71
2024/04/24 10:05:17;;;;;;;6.93;2.97;;;;;;;9.51;60.59;95439.19;5395941;26;20223;-71
2024/04/24 10:07:50;;;;;;;4.83;3.00;;;;;;;9.45;61.41;95441.78;5398432;26;20565;-71
2024/04/24 10:10:21;;;;;;;5.67;3.07;;;;;;;9.34;60.77;95434.38;5397161;26;20227;-71
2024/04/24 10:12:51;;;;;;;5.37;3.10;;;;;;;9.36;61.46;95427.94;5397458;26;20340;-71
2024/04/24 10:15:25;;;;;;;8.40;3.80;;;;;;;9.30;61.95;95439.19;5397730;26;20235;-71
2024/04/24 10:17:54;;;;;;;6.40;3.03;;;;;;;9.24;61.82;95431.25;5396949;26;20230;-71
2024/04/24 10:20:22;;;;;;;6.37;3.27;;;;;;;9.16;61.46;95428.75;5397197;26;20274;-71
2024/04/24 10:22:52;;;;;;;5.20;2.97;;;;;;;8.95;60.45;95426.13;5397105;26;20351;-71
2024/04/24 10:25:23;;;;;;;7.93;4.03;;;;;;;9.10;61.29;95430.31;5397715;26;20343;-71
2024/04/24 10:27:52;;;;;;;6.63;3.37;;;;;;;8.88;60.45;95429.69;5397185;26;20338;-71
2024/04/24 10:30:25;;;;;;;5.47;3.47;;;;;;;8.94;60.31;95419.22;5397902;26;20227;-71
2024/04/24 10:32:53;;;;;;;4.33;2.80;;;;;;;8.71;59.25;95431.72;5396222;26;20725;-71
2024/04/24 10:35:24;;;;;;;4.70;2.70;;;;;;;8.67;57.67;95425.22;5396777;26;20239;-71
2024/04/24 10:37:56;;;;;;;5.27;3.27;;;;;;;8.86;57.24;95419.34;5396422;26;20226;-71
2024/04/24 10:40:27;;;;;;;6.27;3.07;;;;;;;8.96;58.03;95417.25;5397577;26;20270;-71
2024/04/24 10:42:55;;;;;;;2.40;2.13;;;;;;;8.69;57.07;95431.09;5395905;26;20717;-71
2024/04/24 10:45:26;;;;;;;3.57;2.17;;;;;;;8.75;57.85;95427.72;5397651;26;20339;-71
2024/04/24 10:47:55;;;;;;;5.73;3.00;;;;;;;8.62;61.34;95429.38;5396429;26;20223;-71
2024/04/24 10:50:26;;;;;;;5.43;3.70;;;;;;;8.71;61.73;95426.47;5396740;26;20234;-71
2024/04/24 10:52:55;;;;;;;7.73;3.47;;;;;;;8.81;62.55;95419.09;5395564;26;20351;-71
2024/04/24 10:55:24;;;;;;;7.77;3.93;;;;;;;8.67;62.85;95419.94;5396999;26;20227;-71
2024/04/24 10:57:53;;;;;;;7.97;4.33;;;;;;;8.90;63.82;95410.09;5396870;26;20231;-71
2024/04/24 11:00:23;;;;;;;7.77;4.00;;;;;;;9.20;63.71;95411.59;5396048;26;20331;-72
2024/04/24 11:02:55;;;;;;;5.97;3.43;;;;;;;9.13;62.69;95418.63;5395136;26;20743;-71
2024/04/24 11:05:23;;;;;;;7.23;2.80;;;;;;;8.78;61.24;95411.59;5396891;26;20560;-71
2024/04/24 11:08:00;;;;;;;5.30;3.23;;;;;;;8.89;60.84;95408.47;5397141;26;20220;-71
2024/04/24 11:10:29;;;;;;;3.27;2.40;;;;;;;8.74;60.99;95412.94;5396725;26;20227;-72
2024/04/24 11:12:57;;;;;;;5.50;3.37;;;;;;;8.91;61.43;95411.75;5395295;26;20231;-72
2024/04/24 11:15:28;;;;;;;2.87;2.30;;;;;;;8.78;62.08;95405.50;5396221;26;20333;-72
2024/04/24 11:17:58;;;;;;;4.50;2.47;;;;;;;8.82;61.47;95402.34;5396154;26;20721;-72
2024/04/24 11:20:27;;;;;;;6.97;2.80;;;;;;;8.86;61.36;95398.34;5396222;26;20266;-71
2024/04/24 11:22:55;;;;;;;6.90;3.50;;;;;;;8.99;61.13;95397.66;5390904;26;20309;-72
2024/04/24 11:25:24;;;;;;;6.73;2.83;;;;;;;8.88;61.54;95404.22;5392190;26;20242;-71
2024/04/24 11:27:53;;;;;;;6.53;3.10;;;;;;;8.63;61.00;95400.31;5392952;26;21157;-72
2024/04/24 11:30:19;;;;;;;4.53;2.87;;;;;;;8.67;61.59;95388.44;5392467;26;21048;-72
2024/04/24 11:32:50;;;;;;;3.90;2.50;;;;;;;8.71;61.37;95394.16;5392123;26;20227;-71
2024/04/24 11:35:23;;;;;;;8.10;3.67;;;;;;;8.97;61.81;95400.47;5392358;26;20231;-70
2024/04/24 11:37:53;;;;;;;4.43;2.63;;;;;;;8.75;61.97;95401.44;5392904;26;20230;-70
2024/04/24 11:40:22;;;;;;;3.87;2.80;;;;;;;8.57;61.37;95403.66;5393080;26;20300;-70
2024/04/24 11:42:51;;;;;;;4.43;2.87;;;;;;;8.55;62.63;95392.56;5391790;26;20343;-70
2024/04/24 11:45:19;;;;;;;6.87;2.67;;;;;;;8.53;63.81;95394.53;5392877;26;20223;-70